createdAt,value
2019-03-05T00:00:01.731Z,-0.1
2019-03-05T00:01:01.741Z,0.1
2019-03-05T00:02:01.778Z,0.1
2019-03-05T00:03:01.772Z,0
2019-03-05T00:04:01.775Z,0.1
2019-03-05T00:05:01.793Z,0.1
2019-03-05T00:06:01.803Z,0
2019-03-05T00:07:01.813Z,0
2019-03-05T00:08:01.815Z,0
2019-03-05T00:09:01.868Z,0
2019-03-05T00:10:01.833Z,0
2019-03-05T00:11:01.842Z,0
2019-03-05T00:12:01.879Z,0
2019-03-05T00:13:01.880Z,0
2019-03-05T00:14:01.867Z,0
2019-03-05T00:15:01.927Z,0
2019-03-05T00:16:01.929Z,0
2019-03-05T00:17:04.411Z,0
2019-03-05T00:18:01.918Z,0.1
2019-03-05T00:19:01.923Z,0
2019-03-05T00:20:02.048Z,-0.1
2019-03-05T00:21:01.929Z,0
2019-03-05T00:22:01.931Z,0.1
2019-03-05T00:23:01.932Z,0
2019-03-05T00:24:01.988Z,0
2019-03-05T00:25:01.949Z,0
2019-03-05T00:26:01.960Z,0
2019-03-05T00:27:02.018Z,0
2019-03-05T00:28:01.978Z,0
2019-03-05T00:29:01.947Z,0
2019-03-05T00:30:01.973Z,0
2019-03-05T00:31:01.987Z,0
2019-03-05T00:32:01.997Z,-0.1
2019-03-05T00:33:02.038Z,0
2019-03-05T00:34:02.099Z,-0.1
2019-03-05T00:35:02.190Z,-0.1
2019-03-05T00:36:02.182Z,0
2019-03-05T00:37:02.209Z,-0.1
2019-03-05T00:38:02.261Z,0
2019-03-05T00:39:02.810Z,0
2019-03-05T00:40:17.642Z,0
2019-03-05T00:41:02.366Z,-0.1
2019-03-05T00:42:02.443Z,-0.1
2019-03-05T00:43:02.645Z,-0.1
2019-03-05T00:44:02.563Z,-0.1
2019-03-05T00:45:02.550Z,-0.2
2019-03-05T00:46:02.571Z,-0.2
2019-03-05T00:47:02.614Z,-0.1
2019-03-05T00:48:02.689Z,-0.1
2019-03-05T00:49:02.709Z,0
2019-03-05T00:50:02.710Z,-0.1
2019-03-05T00:51:02.778Z,-0.1
2019-03-05T00:52:02.800Z,-0.1
2019-03-05T00:53:02.831Z,-0.2
2019-03-05T00:54:02.837Z,0
2019-03-05T00:55:02.855Z,-0.2
2019-03-05T00:56:02.910Z,-0.2
2019-03-05T00:57:03.003Z,-0.2
2019-03-05T00:58:02.974Z,-0.1
2019-03-05T00:59:02.971Z,-0.2
2019-03-05T01:00:03.021Z,-0.1
2019-03-05T01:01:03.058Z,-0.1
2019-03-05T01:02:03.074Z,-0.1
2019-03-05T01:03:03.139Z,-0.2
2019-03-05T01:04:03.100Z,-0.2
2019-03-05T01:05:03.127Z,-0.2
2019-03-05T01:06:03.181Z,-0.1
2019-03-05T01:07:03.208Z,-0.1
2019-03-05T01:08:03.227Z,-0.1
2019-03-05T01:09:03.227Z,0
2019-03-05T01:10:03.252Z,-0.1
2019-03-05T01:11:03.278Z,-0.1
2019-03-05T01:12:03.305Z,-0.2
2019-03-05T01:13:03.662Z,-0.2
2019-03-05T01:14:03.439Z,-0.2
2019-03-05T01:15:03.349Z,-0.1
2019-03-05T01:16:03.373Z,-0.3
2019-03-05T01:17:06.042Z,-0.2
2019-03-05T01:18:03.410Z,-0.3
2019-03-05T01:19:03.411Z,-0.3
2019-03-05T01:20:03.475Z,-0.3
2019-03-05T01:21:03.472Z,-0.3
2019-03-05T01:22:03.523Z,-0.3
2019-03-05T01:23:03.551Z,-0.2
2019-03-05T01:24:03.698Z,-0.2
2019-03-05T01:25:03.586Z,-0.3
2019-03-05T01:26:03.549Z,-0.3
2019-03-05T01:27:03.648Z,-0.4
2019-03-05T01:28:03.634Z,-0.3
2019-03-05T01:29:03.592Z,-0.2
2019-03-05T01:30:03.586Z,-0.4
2019-03-05T01:31:03.591Z,-0.3
2019-03-05T01:32:03.641Z,-0.5
2019-03-05T01:33:03.646Z,-0.4
2019-03-05T01:34:03.649Z,-0.3
2019-03-05T01:35:03.654Z,-0.4
2019-03-05T01:36:03.669Z,-0.3
2019-03-05T01:37:03.734Z,-0.4
2019-03-05T01:38:03.684Z,-0.4
2019-03-05T01:39:03.741Z,-0.4
2019-03-05T01:40:03.763Z,-0.4
2019-03-05T01:41:03.719Z,-0.5
2019-03-05T01:42:03.761Z,-0.5
2019-03-05T01:43:03.742Z,-0.7
2019-03-05T01:44:03.732Z,-0.6
2019-03-05T01:45:03.759Z,-0.6
2019-03-05T01:46:03.759Z,-0.6
2019-03-05T01:47:03.744Z,-0.6
2019-03-05T01:48:03.803Z,-0.6
2019-03-05T01:49:03.751Z,-0.6
2019-03-05T01:50:03.755Z,-0.5
2019-03-05T01:51:04.315Z,-0.5
2019-03-05T01:52:03.792Z,-0.4
2019-03-05T01:53:03.767Z,-0.3
2019-03-05T01:54:03.867Z,-0.5
2019-03-05T01:55:03.870Z,-0.6
2019-03-05T01:56:03.914Z,-0.5
2019-03-05T01:57:03.896Z,-0.4
2019-03-05T01:58:03.957Z,-0.5
2019-03-05T01:59:03.968Z,-0.7
2019-03-05T02:00:04.048Z,-0.5
2019-03-05T02:01:04.075Z,-0.6
2019-03-05T02:02:04.111Z,-0.5
2019-03-05T02:03:04.195Z,-0.5
2019-03-05T02:04:04.266Z,-0.5
2019-03-05T02:05:04.251Z,-0.5
2019-03-05T02:06:04.287Z,-0.5
2019-03-05T02:07:04.311Z,-0.6
2019-03-05T02:08:04.324Z,-0.5
2019-03-05T02:09:04.434Z,-0.5
2019-03-05T02:10:04.412Z,-0.5
2019-03-05T02:11:04.461Z,-0.5
2019-03-05T02:12:04.490Z,-0.5
2019-03-05T02:13:04.529Z,-0.4
2019-03-05T02:14:04.548Z,-0.4
2019-03-05T02:15:04.593Z,-0.4
2019-03-05T02:16:04.640Z,-0.5
2019-03-05T02:17:04.682Z,-0.4
2019-03-05T02:18:04.699Z,-0.3
2019-03-05T02:19:04.727Z,-0.4
2019-03-05T02:20:04.740Z,-0.4
2019-03-05T02:21:04.797Z,-0.4
2019-03-05T02:22:04.804Z,-0.4
2019-03-05T02:23:04.863Z,-0.4
2019-03-05T02:24:04.890Z,-0.4
2019-03-05T02:25:04.911Z,-0.3
2019-03-05T02:26:04.945Z,-0.3
2019-03-05T02:27:04.957Z,-0.2
2019-03-05T02:28:04.992Z,-0.3
2019-03-05T02:29:05.166Z,-0.2
2019-03-05T02:30:05.279Z,-0.2
2019-03-05T02:31:05.119Z,-0.2
2019-03-05T02:32:05.135Z,-0.3
2019-03-05T02:33:05.140Z,-0.3
2019-03-05T02:34:05.172Z,-0.2
2019-03-05T02:35:05.195Z,-0.2
2019-03-05T02:36:05.235Z,-0.1
2019-03-05T02:37:05.261Z,-0.2
2019-03-05T02:38:05.817Z,-0.2
2019-03-05T02:39:05.320Z,-0.1
2019-03-05T02:40:05.354Z,-0.1
2019-03-05T02:41:05.353Z,0
2019-03-05T02:42:05.404Z,0
2019-03-05T02:43:05.423Z,0
2019-03-05T02:44:05.437Z,0
2019-03-05T02:45:05.476Z,0
2019-03-05T02:46:05.469Z,0
2019-03-05T02:47:05.503Z,0
2019-03-05T02:48:05.509Z,0
2019-03-05T02:49:05.552Z,0
2019-03-05T02:50:05.569Z,0
2019-03-05T02:51:05.587Z,0
2019-03-05T02:52:05.594Z,0
2019-03-05T02:53:05.602Z,0
2019-03-05T02:54:05.616Z,0
2019-03-05T02:55:05.624Z,0
2019-03-05T02:56:05.722Z,0.1
2019-03-05T02:57:05.698Z,0.1
2019-03-05T02:58:05.695Z,0.1
2019-03-05T02:59:05.712Z,0.2
2019-03-05T03:00:05.761Z,0.2
2019-03-05T03:01:05.777Z,0.2
2019-03-05T03:02:05.800Z,0.1
2019-03-05T03:03:05.794Z,0.1
2019-03-05T03:04:05.813Z,0.1
2019-03-05T03:05:05.807Z,0.2
2019-03-05T03:06:05.807Z,0.2
2019-03-05T03:07:05.836Z,0.2
2019-03-05T03:08:05.830Z,0.3
2019-03-05T03:09:05.864Z,0.2
2019-03-05T03:10:05.845Z,0.2
2019-03-05T03:11:05.896Z,0.3
2019-03-05T03:12:05.880Z,0.3
2019-03-05T03:13:05.920Z,0.4
2019-03-05T03:14:05.905Z,0.4
2019-03-05T03:15:05.926Z,0.4
2019-03-05T03:16:08.387Z,0.3
2019-03-05T03:17:05.922Z,0.4
2019-03-05T03:18:05.951Z,0.4
2019-03-05T03:19:05.960Z,0.4
2019-03-05T03:20:05.955Z,0.5
2019-03-05T03:21:06.026Z,0.5
2019-03-05T03:22:05.997Z,0.5
2019-03-05T03:23:06.032Z,0.5
2019-03-05T03:24:06.014Z,0.5
2019-03-05T03:25:06.010Z,0.6
2019-03-05T03:26:06.067Z,0.6
2019-03-05T03:27:06.052Z,0.5
2019-03-05T03:28:06.042Z,0.5
2019-03-05T03:29:06.053Z,0.5
2019-03-05T03:30:06.039Z,0.5
2019-03-05T03:31:06.177Z,0.4
2019-03-05T03:32:06.106Z,0.6
2019-03-05T03:33:06.076Z,0.6
2019-03-05T03:34:06.096Z,0.5
2019-03-05T03:35:06.076Z,0.5
2019-03-05T03:36:06.054Z,0.5
2019-03-05T03:37:06.053Z,0.5
2019-03-05T03:38:06.092Z,0.5
2019-03-05T03:39:06.239Z,0.5
2019-03-05T03:40:06.307Z,0.5
2019-03-05T03:41:06.126Z,0.4
2019-03-05T03:42:06.095Z,0.4
2019-03-05T03:43:06.097Z,0.5
2019-03-05T03:44:06.192Z,0.4
2019-03-05T03:45:06.135Z,0.4
2019-03-05T03:46:06.114Z,0.3
2019-03-05T03:47:06.099Z,0.4
2019-03-05T03:48:06.126Z,0.3
2019-03-05T03:49:06.164Z,0.3
2019-03-05T03:50:06.131Z,0.3
2019-03-05T03:51:06.109Z,0.3
2019-03-05T03:52:06.134Z,0.4
2019-03-05T03:53:06.156Z,0.4
2019-03-05T03:54:06.238Z,0.4
2019-03-05T03:55:06.244Z,0.3
2019-03-05T03:56:06.274Z,0.3
2019-03-05T03:57:06.300Z,0.4
2019-03-05T03:58:06.334Z,0.3
2019-03-05T03:59:06.364Z,0.3
2019-03-05T04:00:06.398Z,0.3
2019-03-05T04:01:07.120Z,0.2
2019-03-05T04:02:06.476Z,0.1
2019-03-05T04:03:06.511Z,0.1
2019-03-05T04:04:06.523Z,0.1
2019-03-05T04:05:06.536Z,0.1
2019-03-05T04:06:06.589Z,0.2
2019-03-05T04:07:06.638Z,0.1
2019-03-05T04:08:06.653Z,0.2
2019-03-05T04:09:06.698Z,0.1
2019-03-05T04:10:06.732Z,0.1
2019-03-05T04:11:06.730Z,0
2019-03-05T04:12:06.753Z,0
2019-03-05T04:13:06.808Z,0
2019-03-05T04:14:06.772Z,0
2019-03-05T04:15:06.787Z,0
2019-03-05T04:16:06.834Z,0
2019-03-05T04:17:06.853Z,0
2019-03-05T04:18:06.901Z,0
2019-03-05T04:19:06.868Z,0
2019-03-05T04:20:06.913Z,0
2019-03-05T04:21:06.901Z,0
2019-03-05T04:22:06.946Z,0
2019-03-05T04:23:06.948Z,0
2019-03-05T04:24:07.014Z,0
2019-03-05T04:25:07.040Z,0
2019-03-05T04:26:07.004Z,0
2019-03-05T04:27:07.014Z,0
2019-03-05T04:28:07.027Z,0
2019-03-05T04:29:07.038Z,0
2019-03-05T04:30:07.088Z,0
2019-03-05T04:31:07.666Z,0.1
2019-03-05T04:32:07.070Z,0.1
2019-03-05T04:33:07.095Z,0
2019-03-05T04:34:07.106Z,0
2019-03-05T04:35:07.110Z,0
2019-03-05T04:36:07.112Z,-0.1
2019-03-05T04:37:07.173Z,-0.1
2019-03-05T04:38:07.127Z,0
2019-03-05T04:39:07.142Z,-0.1
2019-03-05T04:40:07.163Z,-0.1
2019-03-05T04:41:07.158Z,-0.2
2019-03-05T04:42:07.243Z,-0.1
2019-03-05T04:43:07.207Z,-0.2
2019-03-05T04:44:07.221Z,-0.1
2019-03-05T04:45:07.384Z,-0.1
2019-03-05T04:46:07.218Z,-0.3
2019-03-05T04:47:07.227Z,-0.2
2019-03-05T04:48:07.212Z,-0.2
2019-03-05T04:49:07.190Z,-0.2
2019-03-05T04:50:07.228Z,-0.2
2019-03-05T04:51:07.201Z,-0.2
2019-03-05T04:52:07.231Z,-0.1
2019-03-05T04:53:07.216Z,-0.2
2019-03-05T04:54:07.274Z,-0.3
2019-03-05T04:55:07.267Z,-0.2
2019-03-05T04:56:07.244Z,-0.2
2019-03-05T04:57:07.278Z,-0.2
2019-03-05T04:58:07.274Z,-0.2
2019-03-05T04:59:07.315Z,-0.1
2019-03-05T05:00:07.290Z,-0.3
2019-03-05T05:01:09.590Z,-0.3
2019-03-05T05:02:07.388Z,-0.3
2019-03-05T05:03:07.403Z,-0.3
2019-03-05T05:04:07.443Z,-0.3
2019-03-05T05:05:07.495Z,-0.3
2019-03-05T05:06:07.529Z,-0.3
2019-03-05T05:07:07.588Z,-0.3
2019-03-05T05:08:07.622Z,-0.4
2019-03-05T05:09:10.125Z,-0.4
2019-03-05T05:10:07.736Z,-0.4
2019-03-05T05:11:07.752Z,-0.3
2019-03-05T05:12:07.742Z,-0.4
2019-03-05T05:13:07.853Z,-0.4
2019-03-05T05:14:07.873Z,-0.4
2019-03-05T05:15:07.870Z,-0.4
2019-03-05T05:16:07.940Z,-0.4
2019-03-05T05:17:07.957Z,-0.5
2019-03-05T05:18:07.950Z,-0.4
2019-03-05T05:19:07.981Z,-0.4
2019-03-05T05:20:07.987Z,-0.5
2019-03-05T05:21:08.035Z,-0.4
2019-03-05T05:22:08.076Z,-0.5
2019-03-05T05:23:08.079Z,-0.5
2019-03-05T05:24:08.148Z,-0.5
2019-03-05T05:25:08.166Z,-0.5
2019-03-05T05:26:08.150Z,-0.5
2019-03-05T05:27:08.203Z,-0.5
2019-03-05T05:28:08.209Z,-0.5
2019-03-05T05:29:08.235Z,-0.7
2019-03-05T05:30:08.322Z,-0.6
2019-03-05T05:31:08.334Z,-0.7
2019-03-05T05:32:08.312Z,-0.6
2019-03-05T05:33:08.375Z,-0.5
2019-03-05T05:34:08.406Z,-0.5
2019-03-05T05:35:08.395Z,-0.7
2019-03-05T05:36:08.443Z,-0.8
2019-03-05T05:37:08.418Z,-0.7
2019-03-05T05:38:08.485Z,-0.7
2019-03-05T05:39:08.520Z,-0.7
2019-03-05T05:40:08.482Z,-0.7
2019-03-05T05:41:08.535Z,-0.7
2019-03-05T05:42:08.551Z,-0.7
2019-03-05T05:43:08.577Z,-0.8
2019-03-05T05:44:08.602Z,-0.7
2019-03-05T05:45:08.613Z,-0.8
2019-03-05T05:46:08.623Z,-0.7
2019-03-05T05:47:08.664Z,-0.7
2019-03-05T05:48:08.677Z,-0.7
2019-03-05T05:49:08.672Z,-0.8
2019-03-05T05:50:08.677Z,-0.7
2019-03-05T05:51:08.718Z,-0.7
2019-03-05T05:52:08.767Z,-0.7
2019-03-05T05:53:08.759Z,-0.7
2019-03-05T05:54:08.741Z,-0.7
2019-03-05T05:55:08.767Z,-0.6
2019-03-05T05:56:08.823Z,-0.8
2019-03-05T05:57:08.806Z,-0.7
2019-03-05T05:58:08.798Z,-0.8
2019-03-05T05:59:08.856Z,-0.8
2019-03-05T06:00:08.845Z,-0.7
2019-03-05T06:01:08.827Z,-0.7
2019-03-05T06:02:08.848Z,-0.7
2019-03-05T06:03:08.878Z,-0.8
2019-03-05T06:04:08.903Z,-0.7
2019-03-05T06:05:08.894Z,-0.7
2019-03-05T06:06:08.896Z,-0.7
2019-03-05T06:07:08.912Z,-0.7
2019-03-05T06:08:08.910Z,-0.7
2019-03-05T06:09:08.930Z,-0.7
2019-03-05T06:10:08.943Z,-0.7
2019-03-05T06:11:08.987Z,-0.8
2019-03-05T06:12:08.912Z,-0.7
2019-03-05T06:13:08.938Z,-0.7
2019-03-05T06:14:08.941Z,-0.8
2019-03-05T06:15:08.947Z,-0.7
2019-03-05T06:16:08.992Z,-0.6
2019-03-05T06:17:08.943Z,-0.6
2019-03-05T06:18:08.944Z,-0.7
2019-03-05T06:19:08.942Z,-0.7
2019-03-05T06:20:08.960Z,-0.6
2019-03-05T06:21:09.011Z,-0.6
2019-03-05T06:22:09.086Z,-0.5
2019-03-05T06:23:09.094Z,-0.6
2019-03-05T06:24:10.176Z,-0.5
2019-03-05T06:25:09.153Z,-0.5
2019-03-05T06:26:09.184Z,-0.5
2019-03-05T06:27:09.264Z,-0.6
2019-03-05T06:28:09.272Z,-0.6
2019-03-05T06:29:09.359Z,-0.6
2019-03-05T06:30:09.349Z,-0.6
2019-03-05T06:31:09.390Z,-0.6
2019-03-05T06:32:09.391Z,-0.7
2019-03-05T06:33:09.522Z,-0.7
2019-03-05T06:34:09.479Z,-0.7
2019-03-05T06:35:09.488Z,-0.5
2019-03-05T06:36:09.552Z,-0.5
2019-03-05T06:37:09.557Z,-0.4
2019-03-05T06:38:09.633Z,-0.4
2019-03-05T06:39:09.632Z,-0.4
2019-03-05T06:40:09.659Z,-0.4
2019-03-05T06:41:09.705Z,-0.4
2019-03-05T06:42:09.769Z,-0.5
2019-03-05T06:43:09.760Z,-0.4
2019-03-05T06:44:09.826Z,-0.5
2019-03-05T06:45:09.794Z,-0.6
2019-03-05T06:46:09.860Z,-0.5
2019-03-05T06:47:09.874Z,-0.5
2019-03-05T06:48:09.881Z,-0.5
2019-03-05T06:49:10.403Z,-0.5
2019-03-05T06:50:10.009Z,-0.5
2019-03-05T06:51:09.968Z,-0.4
2019-03-05T06:52:11.784Z,-0.5
2019-03-05T06:53:10.063Z,-0.5
2019-03-05T06:54:10.066Z,-0.5
2019-03-05T06:55:10.098Z,-0.5
2019-03-05T06:56:10.165Z,-0.6
2019-03-05T06:57:10.157Z,-0.5
2019-03-05T06:58:11.782Z,-0.4
2019-03-05T06:59:10.188Z,-0.5
2019-03-05T07:00:10.200Z,-0.6
2019-03-05T07:01:10.253Z,-0.5
2019-03-05T07:02:10.265Z,-0.4
2019-03-05T07:03:10.266Z,-0.5
2019-03-05T07:04:12.511Z,-0.5
2019-03-05T07:05:10.333Z,-0.5
2019-03-05T07:06:10.383Z,-0.5
2019-03-05T07:07:10.357Z,-0.5
2019-03-05T07:08:12.872Z,-0.5
2019-03-05T07:09:10.416Z,-0.6
2019-03-05T07:10:10.423Z,-0.5
2019-03-05T07:11:10.466Z,-0.5
2019-03-05T07:12:10.496Z,-0.3
2019-03-05T07:13:10.549Z,-0.2
2019-03-05T07:14:10.521Z,-0.1
2019-03-05T07:15:10.574Z,0.3
2019-03-05T07:16:10.541Z,0.6
2019-03-05T07:17:10.598Z,1
2019-03-05T07:18:11.149Z,1.5
2019-03-05T07:19:10.583Z,1.7
2019-03-05T07:20:10.699Z,1.7
2019-03-05T07:21:10.614Z,1.6
2019-03-05T07:22:10.621Z,1.6
2019-03-05T07:23:10.663Z,1.6
2019-03-05T07:24:10.638Z,1.7
2019-03-05T07:25:10.667Z,1.8
2019-03-05T07:26:10.697Z,1.7
2019-03-05T07:27:10.692Z,1.6
2019-03-05T07:28:10.691Z,1.8
2019-03-05T07:29:10.745Z,1.6
2019-03-05T07:30:10.742Z,1.5
2019-03-05T07:31:10.789Z,1.5
2019-03-05T07:32:10.809Z,1.6
2019-03-05T07:33:10.764Z,1.6
2019-03-05T07:34:10.851Z,1.6
2019-03-05T07:35:10.848Z,1.8
2019-03-05T07:36:10.906Z,1.7
2019-03-05T07:37:10.793Z,1.8
2019-03-05T07:38:10.865Z,1.8
2019-03-05T07:39:10.856Z,1.6
2019-03-05T07:40:10.852Z,1.5
2019-03-05T07:41:10.915Z,1.2
2019-03-05T07:42:10.863Z,1.5
2019-03-05T07:43:10.887Z,1.4
2019-03-05T07:44:10.864Z,1.2
2019-03-05T07:45:10.889Z,1.1
2019-03-05T07:46:10.888Z,1.1
2019-03-05T07:47:10.908Z,1
2019-03-05T07:48:13.122Z,1
2019-03-05T07:49:10.909Z,0.7
2019-03-05T07:50:10.914Z,0.8
2019-03-05T07:51:10.918Z,0.6
2019-03-05T07:52:10.930Z,0.2
2019-03-05T07:53:10.919Z,0.4
2019-03-05T07:54:10.931Z,0.2
2019-03-05T07:55:13.760Z,0.3
2019-03-05T07:56:10.966Z,0.5
2019-03-05T07:57:10.950Z,0.4
2019-03-05T07:58:10.912Z,0.6
2019-03-05T07:59:10.969Z,0.6
2019-03-05T08:00:10.947Z,0.6
2019-03-05T08:01:21.479Z,0.6
2019-03-05T08:02:10.951Z,0.6
2019-03-05T08:03:10.963Z,0.5
2019-03-05T08:04:10.961Z,0.3
2019-03-05T08:05:10.972Z,0.2
2019-03-05T08:06:10.985Z,0.2
2019-03-05T08:07:11.154Z,0.2
2019-03-05T08:08:11.048Z,0
2019-03-05T08:09:10.982Z,0.2
2019-03-05T08:10:10.974Z,0
2019-03-05T08:11:11.007Z,0.3
2019-03-05T08:12:10.994Z,0
2019-03-05T08:13:11.114Z,0.1
2019-03-05T08:14:11.057Z,0.1
2019-03-05T08:15:11.081Z,0.1
2019-03-05T08:16:11.145Z,0.1
2019-03-05T08:17:11.199Z,0.1
2019-03-05T08:18:13.689Z,0.1
2019-03-05T08:19:11.258Z,0
2019-03-05T08:20:11.269Z,0
2019-03-05T08:21:11.317Z,0
2019-03-05T08:22:11.352Z,0
2019-03-05T08:23:11.367Z,0.3
2019-03-05T08:24:11.436Z,0.3
2019-03-05T08:25:11.422Z,0.3
2019-03-05T08:26:11.464Z,0.2
2019-03-05T08:27:11.485Z,0
2019-03-05T08:28:11.540Z,0
2019-03-05T08:29:11.535Z,0
2019-03-05T08:30:14.415Z,0.1
2019-03-05T08:31:11.669Z,0
2019-03-05T08:32:11.621Z,0
2019-03-05T08:33:11.739Z,0.1
2019-03-05T08:34:11.700Z,0.1
2019-03-05T08:35:11.714Z,0.3
2019-03-05T08:36:11.718Z,0.4
2019-03-05T08:37:13.414Z,0.4
2019-03-05T08:38:11.821Z,0.1
2019-03-05T08:39:11.807Z,0.1
2019-03-05T08:40:11.825Z,0.5
2019-03-05T08:41:11.867Z,0.3
2019-03-05T08:42:11.837Z,0.5
2019-03-05T08:43:11.874Z,0.3
2019-03-05T08:44:11.905Z,0.4
2019-03-05T08:45:11.897Z,0.1
2019-03-05T08:46:11.905Z,0.1
2019-03-05T08:47:11.889Z,0
2019-03-05T08:48:11.945Z,0
2019-03-05T08:49:11.939Z,0
2019-03-05T08:50:11.956Z,0.4
2019-03-05T08:51:11.988Z,0.1
2019-03-05T08:52:11.984Z,0.3
2019-03-05T08:53:12.006Z,0.2
2019-03-05T08:54:12.059Z,0.2
2019-03-05T08:55:12.019Z,0.3
2019-03-05T08:56:12.057Z,0.1
2019-03-05T08:57:12.051Z,0.3
2019-03-05T08:58:12.105Z,0.6
2019-03-05T08:59:12.146Z,0.2
2019-03-05T09:00:12.106Z,-0.1
2019-03-05T09:01:12.119Z,0
2019-03-05T09:02:12.099Z,0
2019-03-05T09:03:12.116Z,-0.2
2019-03-05T09:04:12.105Z,-0.2
2019-03-05T09:05:12.133Z,-0.4
2019-03-05T09:06:12.162Z,-0.3
2019-03-05T09:07:12.114Z,-0.3
2019-03-05T09:08:12.135Z,-0.3
2019-03-05T09:09:12.158Z,-0.4
2019-03-05T09:10:12.174Z,-0.5
2019-03-05T09:11:12.133Z,-0.4
2019-03-05T09:12:12.194Z,-0.4
2019-03-05T09:13:12.200Z,-0.3
2019-03-05T09:14:12.201Z,-0.1
2019-03-05T09:15:12.187Z,-0.3
2019-03-05T09:16:12.192Z,-0.2
2019-03-05T09:17:12.182Z,-0.3
2019-03-05T09:18:12.170Z,0
2019-03-05T09:19:12.236Z,-0.2
2019-03-05T09:20:12.268Z,-0.4
2019-03-05T09:21:12.306Z,-0.3
2019-03-05T09:22:12.390Z,-0.1
2019-03-05T09:23:12.380Z,-0.3
2019-03-05T09:24:12.392Z,-0.3
2019-03-05T09:25:13.469Z,-0.1
2019-03-05T09:26:13.455Z,-0.2
2019-03-05T09:27:12.462Z,-0.3
2019-03-05T09:28:12.522Z,-0.5
2019-03-05T09:29:12.596Z,-0.7
2019-03-05T09:30:12.636Z,-0.5
2019-03-05T09:31:12.726Z,-0.6
2019-03-05T09:32:12.691Z,-0.5
2019-03-05T09:33:12.705Z,-0.4
2019-03-05T09:34:12.710Z,-0.4
2019-03-05T09:35:12.773Z,-0.5
2019-03-05T09:36:12.824Z,-0.6
2019-03-05T09:37:12.813Z,-0.5
2019-03-05T09:38:12.824Z,-0.5
2019-03-05T09:39:12.870Z,-0.5
2019-03-05T09:40:12.918Z,-0.5
2019-03-05T09:41:12.920Z,-0.5
2019-03-05T09:42:12.966Z,-0.5
2019-03-05T09:43:13.034Z,-0.5
2019-03-05T09:44:13.061Z,-0.7
2019-03-05T09:45:13.086Z,-0.7
2019-03-05T09:46:13.109Z,-0.5
2019-03-05T09:47:13.124Z,-0.4
2019-03-05T09:48:13.235Z,-0.4
2019-03-05T09:49:13.238Z,-0.4
2019-03-05T09:50:13.335Z,-0.4
2019-03-05T09:51:13.272Z,-0.4
2019-03-05T09:52:13.316Z,-0.4
2019-03-05T09:53:13.313Z,-0.5
2019-03-05T09:54:13.325Z,-0.5
2019-03-05T09:55:13.375Z,-0.5
2019-03-05T09:56:13.394Z,-0.7
2019-03-05T09:57:13.433Z,-0.4
2019-03-05T09:58:13.465Z,-0.3
2019-03-05T09:59:13.451Z,-0.4
2019-03-05T10:00:13.465Z,-0.5
2019-03-05T10:01:13.502Z,-0.3
2019-03-05T10:02:13.528Z,-0.2
2019-03-05T10:03:13.568Z,-0.2
2019-03-05T10:04:13.574Z,-0.3
2019-03-05T10:05:13.626Z,-0.6
2019-03-05T10:06:13.623Z,-0.1
2019-03-05T10:07:18.775Z,-0.3
2019-03-05T10:08:13.603Z,-0.2
2019-03-05T10:09:13.671Z,-0.2
2019-03-05T10:10:13.647Z,0
2019-03-05T10:11:13.636Z,0
2019-03-05T10:12:13.663Z,0.2
2019-03-05T10:13:13.758Z,0.4
2019-03-05T10:14:13.713Z,0.7
2019-03-05T10:15:13.686Z,0.4
2019-03-05T10:16:13.805Z,0.2
2019-03-05T10:17:13.741Z,0.5
2019-03-05T10:18:13.736Z,0.3
2019-03-05T10:19:13.777Z,0.4
2019-03-05T10:20:13.766Z,0.3
2019-03-05T10:21:13.773Z,0.5
2019-03-05T10:22:13.834Z,0.7
2019-03-05T10:23:13.783Z,0.6
2019-03-05T10:24:13.833Z,0.2
2019-03-05T10:25:13.846Z,0.7
2019-03-05T10:26:13.819Z,0.8
2019-03-05T10:27:13.861Z,0.7
2019-03-05T10:28:13.865Z,0.8
2019-03-05T10:29:13.879Z,0.8
2019-03-05T10:30:24.048Z,0.8
2019-03-05T10:31:13.866Z,0.6
2019-03-05T10:32:13.868Z,1
2019-03-05T10:33:13.916Z,0.6
2019-03-05T10:34:13.905Z,0.9
2019-03-05T10:35:13.877Z,0.8
2019-03-05T10:36:13.904Z,0.8
2019-03-05T10:37:18.828Z,0.7
2019-03-05T10:38:13.914Z,0.4
2019-03-05T10:39:13.962Z,0.4
2019-03-05T10:40:13.910Z,0.5
2019-03-05T10:41:13.918Z,0.4
2019-03-05T10:42:13.912Z,0.3
2019-03-05T10:43:13.935Z,0.3
2019-03-05T10:44:14.042Z,0.3
2019-03-05T10:45:13.990Z,0.3
2019-03-05T10:46:14.051Z,0.2
2019-03-05T10:47:14.101Z,0.3
2019-03-05T10:48:14.095Z,0.5
2019-03-05T10:49:14.158Z,0.4
2019-03-05T10:50:15.409Z,0.5
2019-03-05T10:51:14.253Z,0.6
2019-03-05T10:52:14.286Z,0.2
2019-03-05T10:53:14.294Z,-0.2
2019-03-05T10:54:14.361Z,0.5
2019-03-05T10:55:25.669Z,0.1
2019-03-05T10:56:14.410Z,0.2
2019-03-05T10:57:14.454Z,0.1
2019-03-05T10:58:14.477Z,0.3
2019-03-05T10:59:14.536Z,0.2
2019-03-05T11:00:14.503Z,0.5
2019-03-05T11:01:14.567Z,0.1
2019-03-05T11:02:14.622Z,0
2019-03-05T11:03:14.613Z,-0.1
2019-03-05T11:04:14.651Z,0.1
2019-03-05T11:05:14.723Z,0.2
2019-03-05T11:06:14.724Z,0.3
2019-03-05T11:07:14.776Z,0.2
2019-03-05T11:08:14.779Z,0
2019-03-05T11:09:14.836Z,0
2019-03-05T11:10:14.848Z,0.1
2019-03-05T11:11:14.855Z,0.1
2019-03-05T11:12:14.900Z,-0.1
2019-03-05T11:13:14.927Z,-0.1
2019-03-05T11:14:14.913Z,-0.1
2019-03-05T11:15:14.958Z,-0.3
2019-03-05T11:16:14.964Z,-0.2
2019-03-05T11:17:15.015Z,-0.2
2019-03-05T11:18:15.031Z,-0.1
2019-03-05T11:19:15.050Z,-0.1
2019-03-05T11:20:15.106Z,-0.3
2019-03-05T11:21:15.110Z,-0.4
2019-03-05T11:22:15.100Z,-0.3
2019-03-05T11:23:15.155Z,-0.4
2019-03-05T11:24:15.147Z,-0.1
2019-03-05T11:25:15.212Z,0.1
2019-03-05T11:26:15.223Z,0.1
2019-03-05T11:27:15.215Z,0.2
2019-03-05T11:28:15.254Z,0.3
2019-03-05T11:29:15.401Z,0.3
2019-03-05T11:30:15.336Z,0.6
2019-03-05T11:31:15.351Z,0.3
2019-03-05T11:32:15.385Z,0.1
2019-03-05T11:33:15.411Z,0
2019-03-05T11:34:15.434Z,0
2019-03-05T11:35:15.445Z,0
2019-03-05T11:36:15.513Z,0.2
2019-03-05T11:37:15.460Z,0.5
2019-03-05T11:38:15.498Z,0.5
2019-03-05T11:39:15.521Z,0.5
2019-03-05T11:40:20.876Z,0.2
2019-03-05T11:41:15.557Z,0.6
2019-03-05T11:42:15.674Z,0.2
2019-03-05T11:43:15.600Z,0.1
2019-03-05T11:44:15.590Z,0
2019-03-05T11:45:15.649Z,-0.1
2019-03-05T11:46:15.641Z,-0.3
2019-03-05T11:47:15.646Z,0
2019-03-05T11:48:15.708Z,0.2
2019-03-05T11:49:15.658Z,0.2
2019-03-05T11:50:15.673Z,0.1
2019-03-05T11:51:15.694Z,0.1
2019-03-05T11:52:15.734Z,-0.2
2019-03-05T11:53:15.800Z,-0.3
2019-03-05T11:54:15.737Z,-0.2
2019-03-05T11:55:15.786Z,-0.2
2019-03-05T11:56:15.745Z,0.1
2019-03-05T11:57:15.780Z,0.1
2019-03-05T11:58:15.787Z,0
2019-03-05T11:59:15.801Z,0
2019-03-05T12:00:15.794Z,0.2
2019-03-05T12:01:15.806Z,0.4
2019-03-05T12:02:21.621Z,0.4
2019-03-05T12:03:15.905Z,0.3
2019-03-05T12:04:15.834Z,0.5
2019-03-05T12:05:15.916Z,0.6
2019-03-05T12:06:15.839Z,0.7
2019-03-05T12:07:15.836Z,0.8
2019-03-05T12:08:15.845Z,0.6
2019-03-05T12:09:16.891Z,0.9
2019-03-05T12:10:15.861Z,0.8
2019-03-05T12:11:18.390Z,1
2019-03-05T12:12:15.870Z,1.1
2019-03-05T12:13:16.149Z,1.3
2019-03-05T12:14:15.882Z,1.4
2019-03-05T12:15:15.933Z,1.4
2019-03-05T12:16:15.900Z,1.8
2019-03-05T12:17:15.945Z,1.5
2019-03-05T12:18:15.913Z,1.8
2019-03-05T12:19:15.938Z,1.9
2019-03-05T12:20:15.923Z,2.2
2019-03-05T12:21:15.932Z,2.3
2019-03-05T12:22:15.945Z,2.1
2019-03-05T12:23:15.963Z,2.4
2019-03-05T12:24:19.808Z,2.8
2019-03-05T12:25:15.960Z,2.8
2019-03-05T12:26:15.971Z,2.9
2019-03-05T12:27:15.990Z,2.9
2019-03-05T12:28:15.998Z,3.2
2019-03-05T12:29:16.000Z,3.4
2019-03-05T12:30:16.039Z,3.4
2019-03-05T12:31:16.044Z,3.4
2019-03-05T12:32:16.014Z,2.9
2019-03-05T12:33:16.069Z,3
2019-03-05T12:34:16.045Z,3.1
2019-03-05T12:35:16.027Z,3.3
2019-03-05T12:36:16.063Z,3.6
2019-03-05T12:37:16.085Z,3.7
2019-03-05T12:38:16.078Z,3.7
2019-03-05T12:39:16.054Z,3.7
2019-03-05T12:40:16.063Z,3.7
2019-03-05T12:41:16.108Z,3.6
2019-03-05T12:42:16.112Z,3.9
2019-03-05T12:43:16.078Z,4
2019-03-05T12:44:16.111Z,3.9
2019-03-05T12:45:16.113Z,3.7
2019-03-05T12:46:16.088Z,3.5
2019-03-05T12:47:16.151Z,3.4
2019-03-05T12:48:16.082Z,3.5
2019-03-05T12:49:17.054Z,3.6
2019-03-05T12:50:16.109Z,3.8
2019-03-05T12:51:16.137Z,3.8
2019-03-05T12:52:16.134Z,3.7
2019-03-05T12:53:16.252Z,3.5
2019-03-05T12:54:16.199Z,3.4
2019-03-05T12:55:16.204Z,3.4
2019-03-05T12:56:23.665Z,3.4
2019-03-05T12:57:16.233Z,3.4
2019-03-05T12:58:16.259Z,3.4
2019-03-05T12:59:16.284Z,3.5
2019-03-05T13:00:16.303Z,3.4
2019-03-05T13:01:16.309Z,3.4
2019-03-05T13:02:16.337Z,3.4
2019-03-05T13:03:16.315Z,3.4
2019-03-05T13:04:16.348Z,3.5
2019-03-05T13:05:18.635Z,3.5
2019-03-05T13:06:16.381Z,3.5
2019-03-05T13:07:17.654Z,3.2
2019-03-05T13:08:16.376Z,3
2019-03-05T13:09:17.658Z,3
2019-03-05T13:10:16.410Z,2.8
2019-03-05T13:11:16.414Z,2.9
2019-03-05T13:12:16.427Z,2.9
2019-03-05T13:13:16.483Z,3
2019-03-05T13:14:16.439Z,3.1
2019-03-05T13:15:16.442Z,3.3
2019-03-05T13:16:16.457Z,3.4
2019-03-05T13:17:16.441Z,3.5
2019-03-05T13:18:16.496Z,3.6
2019-03-05T13:19:17.530Z,3.7
2019-03-05T13:20:16.473Z,3.6
2019-03-05T13:21:18.284Z,3.8
2019-03-05T13:22:16.472Z,3.7
2019-03-05T13:23:16.482Z,3.6
2019-03-05T13:24:16.471Z,3.5
2019-03-05T13:25:16.475Z,3.5
2019-03-05T13:26:16.513Z,3.5
2019-03-05T13:27:18.695Z,3.4
2019-03-05T13:28:16.531Z,3.5
2019-03-05T13:29:19.111Z,3.6
2019-03-05T13:30:16.532Z,3.7
2019-03-05T13:31:16.568Z,3.8
2019-03-05T13:32:16.754Z,3.6
2019-03-05T13:33:16.659Z,3.5
2019-03-05T13:34:17.692Z,3.6
2019-03-05T13:35:16.684Z,3.6
2019-03-05T13:36:16.934Z,4
2019-03-05T13:37:16.788Z,4
2019-03-05T13:38:16.803Z,4.1
2019-03-05T13:39:18.044Z,4.1
2019-03-05T13:40:16.870Z,4.2
2019-03-05T13:41:16.937Z,4.3